sensor_id;sensor_type;location;lat;lon;timestamp;P1;durP1;ratioP1;P2;durP2;ratioP2
45792;SDS011;31495;42.740;22.908;2024-01-06T00:00:05;22.40;;;10.85;;
45792;SDS011;31495;42.740;22.908;2024-01-06T00:01:05;18.17;;;8.93;;
45792;SDS011;31495;42.740;22.908;2024-01-06T00:02:10;18.60;;;8.85;;
45792;SDS011;31495;42.740;22.908;2024-01-06T00:03:10;24.92;;;12.93;;
45792;SDS011;31495;42.740;22.908;2024-01-06T00:04:10;26.73;;;13.77;;
45792;SDS011;31495;42.740;22.908;2024-01-06T00:05:09;30.33;;;14.60;;
45792;SDS011;31495;42.740;22.908;2024-01-06T00:06:11;33.97;;;17.70;;
45792;SDS011;31495;42.740;22.908;2024-01-06T00:07:11;33.10;;;16.95;;
45792;SDS011;31495;42.740;22.908;2024-01-06T00:08:12;31.33;;;17.58;;
45792;SDS011;31495;42.740;22.908;2024-01-06T00:09:12;35.13;;;17.73;;
45792;SDS011;31495;42.740;22.908;2024-01-06T00:10:11;31.58;;;16.05;;
45792;SDS011;31495;42.740;22.908;2024-01-06T00:11:10;26.92;;;16.02;;
45792;SDS011;31495;42.740;22.908;2024-01-06T00:12:10;28.33;;;15.70;;
45792;SDS011;31495;42.740;22.908;2024-01-06T00:13:09;27.48;;;14.57;;
45792;SDS011;31495;42.740;22.908;2024-01-06T00:14:09;27.48;;;15.02;;
45792;SDS011;31495;42.740;22.908;2024-01-06T00:15:09;27.95;;;14.95;;
45792;SDS011;31495;42.740;22.908;2024-01-06T00:16:10;25.90;;;16.50;;
45792;SDS011;31495;42.740;22.908;2024-01-06T00:17:09;34.13;;;17.10;;
45792;SDS011;31495;42.740;22.908;2024-01-06T00:18:08;32.78;;;16.63;;
45792;SDS011;31495;42.740;22.908;2024-01-06T00:19:08;34.72;;;18.27;;
45792;SDS011;31495;42.740;22.908;2024-01-06T00:20:07;32.08;;;16.85;;
45792;SDS011;31495;42.740;22.908;2024-01-06T00:21:07;33.28;;;15.85;;
45792;SDS011;31495;42.740;22.908;2024-01-06T00:22:07;35.53;;;17.65;;
45792;SDS011;31495;42.740;22.908;2024-01-06T00:23:07;42.88;;;21.15;;
45792;SDS011;31495;42.740;22.908;2024-01-06T00:24:06;46.30;;;19.73;;
45792;SDS011;31495;42.740;22.908;2024-01-06T00:25:06;42.90;;;20.90;;
45792;SDS011;31495;42.740;22.908;2024-01-06T00:26:06;58.28;;;26.17;;
45792;SDS011;31495;42.740;22.908;2024-01-06T00:27:07;37.08;;;18.33;;
45792;SDS011;31495;42.740;22.908;2024-01-06T00:28:07;32.67;;;16.98;;
45792;SDS011;31495;42.740;22.908;2024-01-06T00:29:07;42.70;;;19.33;;
45792;SDS011;31495;42.740;22.908;2024-01-06T00:30:07;44.92;;;22.35;;
45792;SDS011;31495;42.740;22.908;2024-01-06T00:31:08;45.50;;;23.17;;
45792;SDS011;31495;42.740;22.908;2024-01-06T00:32:08;51.17;;;23.70;;
45792;SDS011;31495;42.740;22.908;2024-01-06T00:33:07;37.67;;;19.40;;
45792;SDS011;31495;42.740;22.908;2024-01-06T00:34:07;25.70;;;12.82;;
45792;SDS011;31495;42.740;22.908;2024-01-06T00:35:07;32.05;;;15.90;;
45792;SDS011;31495;42.740;22.908;2024-01-06T00:36:07;27.25;;;14.20;;
45792;SDS011;31495;42.740;22.908;2024-01-06T00:37:07;26.90;;;13.23;;
45792;SDS011;31495;42.740;22.908;2024-01-06T00:38:06;40.22;;;16.88;;
45792;SDS011;31495;42.740;22.908;2024-01-06T00:39:06;41.88;;;21.00;;
45792;SDS011;31495;42.740;22.908;2024-01-06T00:40:06;40.75;;;18.67;;
45792;SDS011;31495;42.740;22.908;2024-01-06T00:41:06;38.80;;;17.88;;
45792;SDS011;31495;42.740;22.908;2024-01-06T00:42:06;29.52;;;15.82;;
45792;SDS011;31495;42.740;22.908;2024-01-06T00:43:06;26.42;;;14.07;;
45792;SDS011;31495;42.740;22.908;2024-01-06T00:44:06;25.60;;;12.32;;
45792;SDS011;31495;42.740;22.908;2024-01-06T00:45:07;24.80;;;13.68;;
45792;SDS011;31495;42.740;22.908;2024-01-06T00:46:07;29.37;;;14.93;;
45792;SDS011;31495;42.740;22.908;2024-01-06T00:47:07;29.13;;;14.98;;
45792;SDS011;31495;42.740;22.908;2024-01-06T00:48:07;33.38;;;16.35;;
45792;SDS011;31495;42.740;22.908;2024-01-06T00:49:07;33.42;;;18.27;;
45792;SDS011;31495;42.740;22.908;2024-01-06T00:50:07;31.42;;;16.50;;
45792;SDS011;31495;42.740;22.908;2024-01-06T00:51:07;32.08;;;15.95;;
45792;SDS011;31495;42.740;22.908;2024-01-06T00:52:07;29.77;;;15.13;;
45792;SDS011;31495;42.740;22.908;2024-01-06T00:53:07;28.27;;;16.10;;
45792;SDS011;31495;42.740;22.908;2024-01-06T00:54:07;31.83;;;15.40;;
45792;SDS011;31495;42.740;22.908;2024-01-06T00:55:07;29.48;;;14.85;;
45792;SDS011;31495;42.740;22.908;2024-01-06T00:56:07;25.55;;;13.63;;
45792;SDS011;31495;42.740;22.908;2024-01-06T00:57:07;25.73;;;14.00;;
45792;SDS011;31495;42.740;22.908;2024-01-06T00:58:07;28.27;;;15.93;;
45792;SDS011;31495;42.740;22.908;2024-01-06T00:59:08;25.50;;;14.05;;
45792;SDS011;31495;42.740;22.908;2024-01-06T01:00:08;22.20;;;12.80;;
45792;SDS011;31495;42.740;22.908;2024-01-06T01:01:08;31.23;;;13.77;;
45792;SDS011;31495;42.740;22.908;2024-01-06T01:02:08;26.08;;;12.05;;
45792;SDS011;31495;42.740;22.908;2024-01-06T01:03:08;16.60;;;8.85;;
45792;SDS011;31495;42.740;22.908;2024-01-06T01:04:08;19.52;;;9.65;;
45792;SDS011;31495;42.740;22.908;2024-01-06T01:05:08;18.73;;;8.43;;
45792;SDS011;31495;42.740;22.908;2024-01-06T01:06:08;17.08;;;9.15;;
45792;SDS011;31495;42.740;22.908;2024-01-06T01:07:08;21.65;;;11.93;;
45792;SDS011;31495;42.740;22.908;2024-01-06T01:08:08;23.42;;;11.93;;
45792;SDS011;31495;42.740;22.908;2024-01-06T01:09:08;26.33;;;11.98;;
45792;SDS011;31495;42.740;22.908;2024-01-06T01:10:09;23.17;;;11.55;;
45792;SDS011;31495;42.740;22.908;2024-01-06T01:11:09;22.77;;;12.05;;
45792;SDS011;31495;42.740;22.908;2024-01-06T01:12:08;24.83;;;11.40;;
45792;SDS011;31495;42.740;22.908;2024-01-06T01:13:08;26.73;;;12.00;;
45792;SDS011;31495;42.740;22.908;2024-01-06T01:14:08;23.67;;;11.43;;
45792;SDS011;31495;42.740;22.908;2024-01-06T01:15:08;23.45;;;12.13;;
45792;SDS011;31495;42.740;22.908;2024-01-06T01:16:08;24.67;;;13.15;;
45792;SDS011;31495;42.740;22.908;2024-01-06T01:17:08;24.33;;;13.55;;
45792;SDS011;31495;42.740;22.908;2024-01-06T01:18:08;21.80;;;13.60;;
45792;SDS011;31495;42.740;22.908;2024-01-06T01:19:08;28.15;;;13.52;;
45792;SDS011;31495;42.740;22.908;2024-01-06T01:20:08;23.45;;;12.02;;
45792;SDS011;31495;42.740;22.908;2024-01-06T01:21:08;22.25;;;12.05;;
45792;SDS011;31495;42.740;22.908;2024-01-06T01:22:08;23.73;;;11.60;;
45792;SDS011;31495;42.740;22.908;2024-01-06T01:23:09;22.83;;;11.63;;
45792;SDS011;31495;42.740;22.908;2024-01-06T01:24:09;15.18;;;8.32;;
45792;SDS011;31495;42.740;22.908;2024-01-06T01:25:09;16.55;;;8.80;;
45792;SDS011;31495;42.740;22.908;2024-01-06T01:26:09;18.73;;;9.20;;
45792;SDS011;31495;42.740;22.908;2024-01-06T01:27:09;16.27;;;9.88;;
45792;SDS011;31495;42.740;22.908;2024-01-06T01:28:09;18.67;;;9.02;;
45792;SDS011;31495;42.740;22.908;2024-01-06T01:29:09;20.95;;;8.85;;
45792;SDS011;31495;42.740;22.908;2024-01-06T01:30:09;17.80;;;10.23;;
45792;SDS011;31495;42.740;22.908;2024-01-06T01:31:09;20.35;;;9.10;;
45792;SDS011;31495;42.740;22.908;2024-01-06T01:32:09;24.27;;;9.70;;
45792;SDS011;31495;42.740;22.908;2024-01-06T01:33:09;17.90;;;9.30;;
45792;SDS011;31495;42.740;22.908;2024-01-06T01:34:11;17.23;;;9.10;;
45792;SDS011;31495;42.740;22.908;2024-01-06T01:35:11;17.73;;;9.93;;
45792;SDS011;31495;42.740;22.908;2024-01-06T01:36:11;18.60;;;8.52;;
45792;SDS011;31495;42.740;22.908;2024-01-06T01:37:11;15.00;;;8.38;;
45792;SDS011;31495;42.740;22.908;2024-01-06T01:38:11;20.23;;;9.73;;
45792;SDS011;31495;42.740;22.908;2024-01-06T01:39:10;19.00;;;8.90;;
45792;SDS011;31495;42.740;22.908;2024-01-06T01:40:10;20.33;;;9.32;;
45792;SDS011;31495;42.740;22.908;2024-01-06T01:41:10;23.48;;;9.05;;
45792;SDS011;31495;42.740;22.908;2024-01-06T01:42:09;18.10;;;9.05;;
45792;SDS011;31495;42.740;22.908;2024-01-06T01:43:16;17.45;;;9.38;;
45792;SDS011;31495;42.740;22.908;2024-01-06T01:44:18;20.45;;;9.63;;
45792;SDS011;31495;42.740;22.908;2024-01-06T01:45:18;20.90;;;8.88;;
45792;SDS011;31495;42.740;22.908;2024-01-06T01:46:17;18.10;;;8.95;;
45792;SDS011;31495;42.740;22.908;2024-01-06T01:47:17;18.38;;;10.20;;
45792;SDS011;31495;42.740;22.908;2024-01-06T01:48:17;17.05;;;8.63;;
45792;SDS011;31495;42.740;22.908;2024-01-06T01:49:18;17.40;;;9.27;;
45792;SDS011;31495;42.740;22.908;2024-01-06T01:50:18;21.83;;;8.80;;
45792;SDS011;31495;42.740;22.908;2024-01-06T01:51:19;21.55;;;10.57;;
45792;SDS011;31495;42.740;22.908;2024-01-06T01:52:19;26.17;;;10.45;;
45792;SDS011;31495;42.740;22.908;2024-01-06T01:53:18;28.55;;;12.80;;
45792;SDS011;31495;42.740;22.908;2024-01-06T01:54:19;27.52;;;12.77;;
45792;SDS011;31495;42.740;22.908;2024-01-06T01:55:19;29.17;;;13.63;;
45792;SDS011;31495;42.740;22.908;2024-01-06T01:56:19;27.23;;;13.10;;
45792;SDS011;31495;42.740;22.908;2024-01-06T01:57:19;27.80;;;13.55;;
45792;SDS011;31495;42.740;22.908;2024-01-06T01:58:22;28.58;;;12.52;;
45792;SDS011;31495;42.740;22.908;2024-01-06T01:59:22;29.33;;;13.75;;
45792;SDS011;31495;42.740;22.908;2024-01-06T02:00:21;25.08;;;12.38;;
45792;SDS011;31495;42.740;22.908;2024-01-06T02:01:21;25.63;;;10.98;;
45792;SDS011;31495;42.740;22.908;2024-01-06T02:02:20;21.00;;;10.90;;
45792;SDS011;31495;42.740;22.908;2024-01-06T02:03:20;20.23;;;10.25;;
45792;SDS011;31495;42.740;22.908;2024-01-06T02:04:21;22.30;;;12.13;;
45792;SDS011;31495;42.740;22.908;2024-01-06T02:05:21;21.38;;;10.60;;
45792;SDS011;31495;42.740;22.908;2024-01-06T02:06:21;20.73;;;10.70;;
45792;SDS011;31495;42.740;22.908;2024-01-06T02:07:20;20.50;;;10.88;;
45792;SDS011;31495;42.740;22.908;2024-01-06T02:08:20;22.45;;;12.98;;
45792;SDS011;31495;42.740;22.908;2024-01-06T02:09:20;21.27;;;11.85;;
45792;SDS011;31495;42.740;22.908;2024-01-06T02:10:21;21.85;;;11.55;;
45792;SDS011;31495;42.740;22.908;2024-01-06T02:11:21;23.60;;;12.07;;
45792;SDS011;31495;42.740;22.908;2024-01-06T02:12:21;32.58;;;12.80;;
45792;SDS011;31495;42.740;22.908;2024-01-06T02:13:20;28.80;;;12.98;;
45792;SDS011;31495;42.740;22.908;2024-01-06T02:14:20;31.70;;;14.38;;
45792;SDS011;31495;42.740;22.908;2024-01-06T02:15:19;34.90;;;16.23;;
45792;SDS011;31495;42.740;22.908;2024-01-06T02:16:19;41.78;;;18.05;;
45792;SDS011;31495;42.740;22.908;2024-01-06T02:17:18;30.25;;;14.95;;
45792;SDS011;31495;42.740;22.908;2024-01-06T02:18:18;38.53;;;16.15;;
45792;SDS011;31495;42.740;22.908;2024-01-06T02:19:17;29.25;;;15.02;;
45792;SDS011;31495;42.740;22.908;2024-01-06T02:20:17;32.80;;;14.88;;
45792;SDS011;31495;42.740;22.908;2024-01-06T02:21:19;30.15;;;14.48;;
45792;SDS011;31495;42.740;22.908;2024-01-06T02:22:20;30.65;;;14.70;;
45792;SDS011;31495;42.740;22.908;2024-01-06T02:23:20;29.70;;;15.07;;
45792;SDS011;31495;42.740;22.908;2024-01-06T02:24:19;33.20;;;14.73;;
45792;SDS011;31495;42.740;22.908;2024-01-06T02:25:19;31.67;;;15.20;;
45792;SDS011;31495;42.740;22.908;2024-01-06T02:26:19;34.80;;;15.55;;
45792;SDS011;31495;42.740;22.908;2024-01-06T02:27:18;33.85;;;16.77;;
45792;SDS011;31495;42.740;22.908;2024-01-06T02:28:17;31.60;;;15.23;;
45792;SDS011;31495;42.740;22.908;2024-01-06T02:29:17;33.95;;;14.93;;
45792;SDS011;31495;42.740;22.908;2024-01-06T02:30:16;31.58;;;15.38;;
45792;SDS011;31495;42.740;22.908;2024-01-06T02:31:16;32.67;;;15.27;;
45792;SDS011;31495;42.740;22.908;2024-01-06T02:32:15;36.00;;;15.75;;
45792;SDS011;31495;42.740;22.908;2024-01-06T02:33:14;30.15;;;15.07;;
45792;SDS011;31495;42.740;22.908;2024-01-06T02:34:14;30.73;;;15.40;;
45792;SDS011;31495;42.740;22.908;2024-01-06T02:35:13;27.00;;;13.20;;
45792;SDS011;31495;42.740;22.908;2024-01-06T02:36:13;25.13;;;10.85;;
45792;SDS011;31495;42.740;22.908;2024-01-06T02:37:12;24.67;;;12.13;;
45792;SDS011;31495;42.740;22.908;2024-01-06T02:38:12;23.90;;;12.52;;
45792;SDS011;31495;42.740;22.908;2024-01-06T02:39:12;22.27;;;10.63;;
45792;SDS011;31495;42.740;22.908;2024-01-06T02:40:13;20.90;;;9.80;;
45792;SDS011;31495;42.740;22.908;2024-01-06T02:41:13;19.98;;;10.60;;
45792;SDS011;31495;42.740;22.908;2024-01-06T02:42:12;28.52;;;13.18;;
45792;SDS011;31495;42.740;22.908;2024-01-06T02:43:12;31.83;;;15.77;;
45792;SDS011;31495;42.740;22.908;2024-01-06T02:44:12;27.00;;;13.18;;
45792;SDS011;31495;42.740;22.908;2024-01-06T02:45:13;33.67;;;16.73;;
45792;SDS011;31495;42.740;22.908;2024-01-06T02:46:13;42.08;;;21.15;;
45792;SDS011;31495;42.740;22.908;2024-01-06T02:47:12;43.53;;;23.50;;
45792;SDS011;31495;42.740;22.908;2024-01-06T02:48:12;47.20;;;24.35;;
45792;SDS011;31495;42.740;22.908;2024-01-06T02:49:12;52.55;;;24.27;;
45792;SDS011;31495;42.740;22.908;2024-01-06T02:50:12;47.50;;;24.00;;
45792;SDS011;31495;42.740;22.908;2024-01-06T02:51:13;48.13;;;23.63;;
45792;SDS011;31495;42.740;22.908;2024-01-06T02:52:13;43.45;;;22.20;;
45792;SDS011;31495;42.740;22.908;2024-01-06T02:53:13;47.55;;;23.48;;
45792;SDS011;31495;42.740;22.908;2024-01-06T02:54:13;37.45;;;18.08;;
45792;SDS011;31495;42.740;22.908;2024-01-06T02:55:13;28.25;;;12.30;;
45792;SDS011;31495;42.740;22.908;2024-01-06T02:56:13;21.67;;;10.90;;
45792;SDS011;31495;42.740;22.908;2024-01-06T02:57:13;18.50;;;9.40;;
45792;SDS011;31495;42.740;22.908;2024-01-06T02:58:13;20.75;;;10.18;;
45792;SDS011;31495;42.740;22.908;2024-01-06T02:59:13;24.60;;;10.80;;
45792;SDS011;31495;42.740;22.908;2024-01-06T03:00:13;30.65;;;16.58;;
45792;SDS011;31495;42.740;22.908;2024-01-06T03:01:13;36.65;;;18.77;;
45792;SDS011;31495;42.740;22.908;2024-01-06T03:02:13;39.67;;;18.85;;
45792;SDS011;31495;42.740;22.908;2024-01-06T03:03:16;34.15;;;18.00;;
45792;SDS011;31495;42.740;22.908;2024-01-06T03:04:15;32.28;;;18.27;;
45792;SDS011;31495;42.740;22.908;2024-01-06T03:05:14;32.00;;;18.50;;
45792;SDS011;31495;42.740;22.908;2024-01-06T03:06:14;35.80;;;17.42;;
45792;SDS011;31495;42.740;22.908;2024-01-06T03:07:13;34.25;;;18.02;;
45792;SDS011;31495;42.740;22.908;2024-01-06T03:08:13;32.97;;;18.48;;
45792;SDS011;31495;42.740;22.908;2024-01-06T03:09:13;37.22;;;18.15;;
45792;SDS011;31495;42.740;22.908;2024-01-06T03:10:14;32.58;;;17.15;;
45792;SDS011;31495;42.740;22.908;2024-01-06T03:11:14;35.97;;;17.08;;
45792;SDS011;31495;42.740;22.908;2024-01-06T03:12:14;32.65;;;17.75;;
45792;SDS011;31495;42.740;22.908;2024-01-06T03:13:14;39.63;;;18.15;;
45792;SDS011;31495;42.740;22.908;2024-01-06T03:14:14;35.33;;;16.95;;
45792;SDS011;31495;42.740;22.908;2024-01-06T03:15:14;34.97;;;18.27;;
45792;SDS011;31495;42.740;22.908;2024-01-06T03:16:14;33.63;;;17.15;;
45792;SDS011;31495;42.740;22.908;2024-01-06T03:17:14;29.83;;;13.20;;
45792;SDS011;31495;42.740;22.908;2024-01-06T03:18:14;25.70;;;12.68;;
45792;SDS011;31495;42.740;22.908;2024-01-06T03:19:14;30.70;;;13.55;;
45792;SDS011;31495;42.740;22.908;2024-01-06T03:20:14;28.95;;;13.13;;
45792;SDS011;31495;42.740;22.908;2024-01-06T03:21:17;32.15;;;14.80;;
45792;SDS011;31495;42.740;22.908;2024-01-06T03:22:18;31.92;;;15.43;;
45792;SDS011;31495;42.740;22.908;2024-01-06T03:23:17;27.10;;;15.27;;
45792;SDS011;31495;42.740;22.908;2024-01-06T03:24:17;32.30;;;15.40;;
45792;SDS011;31495;42.740;22.908;2024-01-06T03:25:16;34.67;;;16.15;;
45792;SDS011;31495;42.740;22.908;2024-01-06T03:26:17;31.77;;;16.75;;
45792;SDS011;31495;42.740;22.908;2024-01-06T03:27:17;32.38;;;15.95;;
45792;SDS011;31495;42.740;22.908;2024-01-06T03:28:16;32.85;;;16.75;;
45792;SDS011;31495;42.740;22.908;2024-01-06T03:29:15;34.22;;;17.42;;
45792;SDS011;31495;42.740;22.908;2024-01-06T03:30:15;35.95;;;18.73;;
45792;SDS011;31495;42.740;22.908;2024-01-06T03:31:15;28.17;;;14.80;;
45792;SDS011;31495;42.740;22.908;2024-01-06T03:32:15;33.55;;;16.88;;
45792;SDS011;31495;42.740;22.908;2024-01-06T03:33:15;32.15;;;16.40;;
45792;SDS011;31495;42.740;22.908;2024-01-06T03:34:15;33.17;;;15.55;;
45792;SDS011;31495;42.740;22.908;2024-01-06T03:35:15;29.40;;;15.20;;
45792;SDS011;31495;42.740;22.908;2024-01-06T03:36:15;35.78;;;17.13;;
45792;SDS011;31495;42.740;22.908;2024-01-06T03:37:16;32.83;;;15.40;;
45792;SDS011;31495;42.740;22.908;2024-01-06T03:38:18;32.88;;;16.67;;
45792;SDS011;31495;42.740;22.908;2024-01-06T03:39:17;43.80;;;19.27;;
45792;SDS011;31495;42.740;22.908;2024-01-06T03:40:17;38.90;;;17.45;;
45792;SDS011;31495;42.740;22.908;2024-01-06T03:41:16;36.95;;;19.38;;
45792;SDS011;31495;42.740;22.908;2024-01-06T03:42:16;28.05;;;14.88;;
45792;SDS011;31495;42.740;22.908;2024-01-06T03:43:15;24.20;;;11.85;;
45792;SDS011;31495;42.740;22.908;2024-01-06T03:44:15;17.85;;;9.07;;
45792;SDS011;31495;42.740;22.908;2024-01-06T03:45:16;18.52;;;8.68;;
45792;SDS011;31495;42.740;22.908;2024-01-06T03:46:15;20.30;;;9.98;;
45792;SDS011;31495;42.740;22.908;2024-01-06T03:47:16;16.77;;;8.55;;
45792;SDS011;31495;42.740;22.908;2024-01-06T03:48:16;22.08;;;10.07;;
45792;SDS011;31495;42.740;22.908;2024-01-06T03:49:16;15.63;;;9.07;;
45792;SDS011;31495;42.740;22.908;2024-01-06T03:50:17;18.15;;;9.95;;
45792;SDS011;31495;42.740;22.908;2024-01-06T03:51:17;21.50;;;9.95;;
45792;SDS011;31495;42.740;22.908;2024-01-06T03:52:16;24.33;;;10.98;;
45792;SDS011;31495;42.740;22.908;2024-01-06T03:53:16;21.23;;;10.07;;
45792;SDS011;31495;42.740;22.908;2024-01-06T03:54:16;15.73;;;8.70;;
45792;SDS011;31495;42.740;22.908;2024-01-06T03:55:16;15.77;;;8.93;;
45792;SDS011;31495;42.740;22.908;2024-01-06T03:56:16;20.27;;;8.75;;
45792;SDS011;31495;42.740;22.908;2024-01-06T03:57:16;16.48;;;7.75;;
45792;SDS011;31495;42.740;22.908;2024-01-06T03:58:16;18.13;;;8.73;;
45792;SDS011;31495;42.740;22.908;2024-01-06T03:59:16;16.70;;;8.27;;
45792;SDS011;31495;42.740;22.908;2024-01-06T04:00:17;17.20;;;8.40;;
45792;SDS011;31495;42.740;22.908;2024-01-06T04:01:17;20.13;;;9.15;;
45792;SDS011;31495;42.740;22.908;2024-01-06T04:02:17;17.50;;;8.50;;
45792;SDS011;31495;42.740;22.908;2024-01-06T04:03:17;18.20;;;9.15;;
45792;SDS011;31495;42.740;22.908;2024-01-06T04:04:17;20.90;;;10.18;;
45792;SDS011;31495;42.740;22.908;2024-01-06T04:05:17;20.33;;;9.73;;
45792;SDS011;31495;42.740;22.908;2024-01-06T04:06:17;22.48;;;11.00;;
45792;SDS011;31495;42.740;22.908;2024-01-06T04:07:17;17.13;;;7.38;;
45792;SDS011;31495;42.740;22.908;2024-01-06T04:08:17;21.55;;;8.98;;
45792;SDS011;31495;42.740;22.908;2024-01-06T04:09:17;26.00;;;12.52;;
45792;SDS011;31495;42.740;22.908;2024-01-06T04:10:17;22.20;;;11.50;;
45792;SDS011;31495;42.740;22.908;2024-01-06T04:11:17;18.45;;;10.32;;
45792;SDS011;31495;42.740;22.908;2024-01-06T04:12:17;20.15;;;10.63;;
45792;SDS011;31495;42.740;22.908;2024-01-06T04:13:18;25.83;;;11.25;;
45792;SDS011;31495;42.740;22.908;2024-01-06T04:14:18;26.90;;;11.90;;
45792;SDS011;31495;42.740;22.908;2024-01-06T04:15:18;23.77;;;12.05;;
45792;SDS011;31495;42.740;22.908;2024-01-06T04:16:18;20.50;;;11.38;;
45792;SDS011;31495;42.740;22.908;2024-01-06T04:17:18;24.30;;;11.82;;
45792;SDS011;31495;42.740;22.908;2024-01-06T04:18:18;30.38;;;16.60;;
45792;SDS011;31495;42.740;22.908;2024-01-06T04:19:18;38.88;;;19.38;;
45792;SDS011;31495;42.740;22.908;2024-01-06T04:20:19;52.20;;;24.05;;
45792;SDS011;31495;42.740;22.908;2024-01-06T04:21:18;44.72;;;22.00;;
45792;SDS011;31495;42.740;22.908;2024-01-06T04:22:18;42.38;;;23.17;;
45792;SDS011;31495;42.740;22.908;2024-01-06T04:23:18;46.25;;;23.75;;
45792;SDS011;31495;42.740;22.908;2024-01-06T04:24:18;47.83;;;24.38;;
45792;SDS011;31495;42.740;22.908;2024-01-06T04:25:18;47.40;;;23.45;;
45792;SDS011;31495;42.740;22.908;2024-01-06T04:26:18;36.92;;;20.55;;
45792;SDS011;31495;42.740;22.908;2024-01-06T04:27:18;33.13;;;16.88;;
45792;SDS011;31495;42.740;22.908;2024-01-06T04:28:18;28.63;;;15.70;;
45792;SDS011;31495;42.740;22.908;2024-01-06T04:29:18;30.80;;;15.77;;
45792;SDS011;31495;42.740;22.908;2024-01-06T04:30:18;26.50;;;14.93;;
45792;SDS011;31495;42.740;22.908;2024-01-06T04:31:19;31.35;;;15.18;;
45792;SDS011;31495;42.740;22.908;2024-01-06T04:32:19;25.60;;;13.70;;
45792;SDS011;31495;42.740;22.908;2024-01-06T04:33:18;26.15;;;12.95;;
45792;SDS011;31495;42.740;22.908;2024-01-06T04:34:18;22.88;;;11.85;;
45792;SDS011;31495;42.740;22.908;2024-01-06T04:35:19;19.17;;;9.60;;
45792;SDS011;31495;42.740;22.908;2024-01-06T04:36:19;21.60;;;10.93;;
45792;SDS011;31495;42.740;22.908;2024-01-06T04:37:19;25.00;;;10.73;;
45792;SDS011;31495;42.740;22.908;2024-01-06T04:38:19;25.60;;;12.23;;
45792;SDS011;31495;42.740;22.908;2024-01-06T04:39:19;22.60;;;11.43;;
45792;SDS011;31495;42.740;22.908;2024-01-06T04:40:19;20.70;;;11.38;;
45792;SDS011;31495;42.740;22.908;2024-01-06T04:41:19;19.27;;;11.30;;
45792;SDS011;31495;42.740;22.908;2024-01-06T04:42:19;28.55;;;12.88;;
45792;SDS011;31495;42.740;22.908;2024-01-06T04:43:21;22.92;;;12.80;;
45792;SDS011;31495;42.740;22.908;2024-01-06T04:44:21;29.90;;;13.68;;
45792;SDS011;31495;42.740;22.908;2024-01-06T04:45:21;29.80;;;13.68;;
45792;SDS011;31495;42.740;22.908;2024-01-06T04:46:23;29.90;;;14.05;;
45792;SDS011;31495;42.740;22.908;2024-01-06T04:47:23;25.40;;;13.30;;
45792;SDS011;31495;42.740;22.908;2024-01-06T04:48:22;24.75;;;13.63;;
45792;SDS011;31495;42.740;22.908;2024-01-06T04:49:21;30.80;;;14.70;;
45792;SDS011;31495;42.740;22.908;2024-01-06T04:50:21;31.92;;;15.52;;
45792;SDS011;31495;42.740;22.908;2024-01-06T04:51:20;31.58;;;16.27;;
45792;SDS011;31495;42.740;22.908;2024-01-06T04:52:20;33.83;;;15.00;;
45792;SDS011;31495;42.740;22.908;2024-01-06T04:53:20;27.08;;;13.73;;
45792;SDS011;31495;42.740;22.908;2024-01-06T04:54:20;33.17;;;16.00;;
45792;SDS011;31495;42.740;22.908;2024-01-06T04:55:20;28.20;;;13.93;;
45792;SDS011;31495;42.740;22.908;2024-01-06T04:56:20;32.10;;;14.20;;
45792;SDS011;31495;42.740;22.908;2024-01-06T04:57:20;26.45;;;13.50;;
45792;SDS011;31495;42.740;22.908;2024-01-06T04:58:20;30.73;;;14.68;;
45792;SDS011;31495;42.740;22.908;2024-01-06T04:59:20;22.27;;;11.60;;
45792;SDS011;31495;42.740;22.908;2024-01-06T05:00:20;28.70;;;14.38;;
45792;SDS011;31495;42.740;22.908;2024-01-06T05:01:20;28.98;;;13.90;;
45792;SDS011;31495;42.740;22.908;2024-01-06T05:02:20;27.13;;;13.45;;
45792;SDS011;31495;42.740;22.908;2024-01-06T05:03:20;30.17;;;15.43;;
45792;SDS011;31495;42.740;22.908;2024-01-06T05:04:20;34.55;;;16.17;;
45792;SDS011;31495;42.740;22.908;2024-01-06T05:05:20;36.47;;;16.55;;
45792;SDS011;31495;42.740;22.908;2024-01-06T05:06:20;28.42;;;14.45;;
45792;SDS011;31495;42.740;22.908;2024-01-06T05:07:20;32.47;;;15.70;;
45792;SDS011;31495;42.740;22.908;2024-01-06T05:08:20;40.72;;;18.10;;
45792;SDS011;31495;42.740;22.908;2024-01-06T05:09:21;43.17;;;18.38;;
45792;SDS011;31495;42.740;22.908;2024-01-06T05:10:20;37.17;;;15.85;;
45792;SDS011;31495;42.740;22.908;2024-01-06T05:11:20;36.72;;;16.85;;
45792;SDS011;31495;42.740;22.908;2024-01-06T05:12:20;52.83;;;21.17;;
45792;SDS011;31495;42.740;22.908;2024-01-06T05:13:20;50.63;;;22.27;;
45792;SDS011;31495;42.740;22.908;2024-01-06T05:14:21;67.82;;;25.83;;
45792;SDS011;31495;42.740;22.908;2024-01-06T05:15:20;65.43;;;26.75;;
45792;SDS011;31495;42.740;22.908;2024-01-06T05:16:20;69.03;;;25.45;;
45792;SDS011;31495;42.740;22.908;2024-01-06T05:17:20;50.63;;;21.90;;
45792;SDS011;31495;42.740;22.908;2024-01-06T05:18:20;59.15;;;24.50;;
45792;SDS011;31495;42.740;22.908;2024-01-06T05:19:20;49.97;;;20.63;;
45792;SDS011;31495;42.740;22.908;2024-01-06T05:20:20;35.63;;;16.88;;
45792;SDS011;31495;42.740;22.908;2024-01-06T05:21:20;38.75;;;16.90;;
45792;SDS011;31495;42.740;22.908;2024-01-06T05:22:20;46.50;;;18.02;;
45792;SDS011;31495;42.740;22.908;2024-01-06T05:23:20;31.10;;;15.05;;
45792;SDS011;31495;42.740;22.908;2024-01-06T05:24:20;26.00;;;14.65;;
45792;SDS011;31495;42.740;22.908;2024-01-06T05:25:20;34.35;;;17.45;;
45792;SDS011;31495;42.740;22.908;2024-01-06T05:26:21;56.60;;;20.75;;
45792;SDS011;31495;42.740;22.908;2024-01-06T05:27:23;39.65;;;17.75;;
45792;SDS011;31495;42.740;22.908;2024-01-06T05:28:23;28.00;;;11.75;;
45792;SDS011;31495;42.740;22.908;2024-01-06T05:29:22;32.85;;;11.88;;
45792;SDS011;31495;42.740;22.908;2024-01-06T05:30:23;28.45;;;13.65;;
45792;SDS011;31495;42.740;22.908;2024-01-06T05:31:22;29.63;;;11.20;;
45792;SDS011;31495;42.740;22.908;2024-01-06T05:32:22;25.02;;;11.85;;
45792;SDS011;31495;42.740;22.908;2024-01-06T05:33:21;32.08;;;11.45;;
45792;SDS011;31495;42.740;22.908;2024-01-06T05:34:21;19.50;;;10.73;;
45792;SDS011;31495;42.740;22.908;2024-01-06T05:35:21;21.63;;;9.82;;
45792;SDS011;31495;42.740;22.908;2024-01-06T05:36:21;19.95;;;10.45;;
45792;SDS011;31495;42.740;22.908;2024-01-06T05:37:21;32.38;;;13.90;;
45792;SDS011;31495;42.740;22.908;2024-01-06T05:38:21;33.03;;;15.70;;
45792;SDS011;31495;42.740;22.908;2024-01-06T05:39:24;31.75;;;15.93;;
45792;SDS011;31495;42.740;22.908;2024-01-06T05:40:24;36.50;;;19.25;;
45792;SDS011;31495;42.740;22.908;2024-01-06T05:41:23;31.67;;;15.90;;
45792;SDS011;31495;42.740;22.908;2024-01-06T05:42:23;36.22;;;17.67;;
45792;SDS011;31495;42.740;22.908;2024-01-06T05:43:22;35.95;;;18.10;;
45792;SDS011;31495;42.740;22.908;2024-01-06T05:44:22;46.72;;;21.02;;
45792;SDS011;31495;42.740;22.908;2024-01-06T05:45:22;34.15;;;19.65;;
45792;SDS011;31495;42.740;22.908;2024-01-06T05:46:22;35.78;;;17.60;;